sensor_id;sensor_type;location;lat;lon;timestamp;pressure;altitude;pressure_sealevel;temperature;humidity
5703;BME280;2876;51.738;10.050;2023-07-20T00:02:50;98977.38;;;17.04;100.00
5703;BME280;2876;51.738;10.050;2023-07-20T00:08:56;98977.13;;;17.06;100.00
5703;BME280;2876;51.738;10.050;2023-07-20T00:15:00;98984.16;;;17.07;100.00
5703;BME280;2876;51.738;10.050;2023-07-20T00:21:02;98984.13;;;17.23;100.00
5703;BME280;2876;51.738;10.050;2023-07-20T00:27:06;98986.56;;;17.25;100.00
5703;BME280;2876;51.738;10.050;2023-07-20T00:33:11;98992.63;;;17.10;100.00
5703;BME280;2876;51.738;10.050;2023-07-20T00:39:13;98985.13;;;17.17;100.00
5703;BME280;2876;51.738;10.050;2023-07-20T00:45:15;98986.03;;;17.23;100.00
5703;BME280;2876;51.738;10.050;2023-07-20T00:51:17;98968.16;;;17.05;100.00
5703;BME280;2876;51.738;10.050;2023-07-20T00:57:19;98960.38;;;17.09;100.00
5703;BME280;2876;51.738;10.050;2023-07-20T01:03:21;98967.50;;;16.98;100.00
5703;BME280;2876;51.738;10.050;2023-07-20T01:10:13;98966.25;;;16.84;100.00
5703;BME280;2876;51.738;10.050;2023-07-20T01:15:57;98980.44;;;16.91;100.00
5703;BME280;2876;51.738;10.050;2023-07-20T01:35:17;98972.19;;;16.81;100.00
5703;BME280;2876;51.738;10.050;2023-07-20T01:41:21;98975.34;;;16.61;100.00
5703;BME280;2876;51.738;10.050;2023-07-20T01:47:24;98967.16;;;16.72;100.00
5703;BME280;2876;51.738;10.050;2023-07-20T01:53:26;98973.22;;;16.46;100.00
5703;BME280;2876;51.738;10.050;2023-07-20T01:59:28;98970.59;;;16.34;100.00
5703;BME280;2876;51.738;10.050;2023-07-20T02:05:30;98979.22;;;16.48;100.00
5703;BME280;2876;51.738;10.050;2023-07-20T02:11:32;98977.66;;;16.52;100.00
5703;BME280;2876;51.738;10.050;2023-07-20T02:17:34;98982.09;;;16.58;100.00
5703;BME280;2876;51.738;10.050;2023-07-20T02:23:36;98982.91;;;16.59;100.00
5703;BME280;2876;51.738;10.050;2023-07-20T02:29:38;98974.94;;;16.52;100.00
5703;BME280;2876;51.738;10.050;2023-07-20T02:35:40;98986.44;;;16.42;100.00
5703;BME280;2876;51.738;10.050;2023-07-20T02:41:42;98980.88;;;16.49;100.00
5703;BME280;2876;51.738;10.050;2023-07-20T02:47:45;98980.38;;;16.35;100.00
5703;BME280;2876;51.738;10.050;2023-07-20T02:53:47;98979.75;;;16.16;100.00
5703;BME280;2876;51.738;10.050;2023-07-20T02:59:49;98974.78;;;16.08;100.00
5703;BME280;2876;51.738;10.050;2023-07-20T03:05:51;98982.97;;;16.13;100.00
5703;BME280;2876;51.738;10.050;2023-07-20T03:11:56;98991.53;;;16.22;100.00
5703;BME280;2876;51.738;10.050;2023-07-20T03:17:58;98977.56;;;16.30;100.00
5703;BME280;2876;51.738;10.050;2023-07-20T03:24:00;98981.41;;;16.34;100.00
5703;BME280;2876;51.738;10.050;2023-07-20T03:30:05;98983.88;;;16.19;100.00
5703;BME280;2876;51.738;10.050;2023-07-20T03:36:09;98981.75;;;16.38;100.00
5703;BME280;2876;51.738;10.050;2023-07-20T03:42:12;98971.41;;;16.35;100.00
5703;BME280;2876;51.738;10.050;2023-07-20T03:48:20;98978.91;;;16.44;100.00
5703;BME280;2876;51.738;10.050;2023-07-20T03:54:23;98976.00;;;16.51;100.00
5703;BME280;2876;51.738;10.050;2023-07-20T04:00:25;98973.88;;;16.36;100.00
5703;BME280;2876;51.738;10.050;2023-07-20T04:06:27;98974.72;;;16.37;100.00
5703;BME280;2876;51.738;10.050;2023-07-20T04:12:29;98979.06;;;16.55;100.00
5703;BME280;2876;51.738;10.050;2023-07-20T04:18:31;98982.44;;;16.45;100.00
5703;BME280;2876;51.738;10.050;2023-07-20T04:24:36;98983.97;;;16.41;100.00
5703;BME280;2876;51.738;10.050;2023-07-20T04:30:39;98977.97;;;16.39;100.00
5703;BME280;2876;51.738;10.050;2023-07-20T04:36:42;98989.16;;;16.59;100.00
5703;BME280;2876;51.738;10.050;2023-07-20T04:42:44;98991.44;;;16.51;100.00
5703;BME280;2876;51.738;10.050;2023-07-20T04:48:46;98981.34;;;16.63;100.00
5703;BME280;2876;51.738;10.050;2023-07-20T04:54:49;98983.81;;;16.64;100.00
5703;BME280;2876;51.738;10.050;2023-07-20T05:00:51;98987.03;;;16.78;100.00
5703;BME280;2876;51.738;10.050;2023-07-20T05:06:54;98995.00;;;17.07;100.00
5703;BME280;2876;51.738;10.050;2023-07-20T05:12:56;98980.00;;;17.21;100.00
5703;BME280;2876;51.738;10.050;2023-07-20T05:18:58;98981.47;;;17.07;100.00
5703;BME280;2876;51.738;10.050;2023-07-20T05:25:00;98994.38;;;16.99;100.00
5703;BME280;2876;51.738;10.050;2023-07-20T05:31:06;98995.06;;;16.73;100.00
5703;BME280;2876;51.738;10.050;2023-07-20T05:37:08;98983.63;;;16.71;100.00
5703;BME280;2876;51.738;10.050;2023-07-20T05:43:12;98994.72;;;16.86;100.00
5703;BME280;2876;51.738;10.050;2023-07-20T05:49:14;98993.66;;;17.26;100.00
5703;BME280;2876;51.738;10.050;2023-07-20T05:55:16;98989.78;;;17.44;100.00
5703;BME280;2876;51.738;10.050;2023-07-20T06:01:18;98993.63;;;17.48;100.00
5703;BME280;2876;51.738;10.050;2023-07-20T06:07:21;99001.97;;;17.41;100.00
5703;BME280;2876;51.738;10.050;2023-07-20T06:13:23;98992.66;;;17.32;100.00
5703;BME280;2876;51.738;10.050;2023-07-20T06:19:28;99001.47;;;17.44;100.00
5703;BME280;2876;51.738;10.050;2023-07-20T06:25:30;99006.53;;;17.36;100.00
5703;BME280;2876;51.738;10.050;2023-07-20T06:31:35;99017.47;;;17.24;100.00
5703;BME280;2876;51.738;10.050;2023-07-20T06:37:41;99031.38;;;17.11;100.00
5703;BME280;2876;51.738;10.050;2023-07-20T06:43:43;99026.47;;;16.57;100.00
5703;BME280;2876;51.738;10.050;2023-07-20T06:49:48;99021.47;;;16.66;100.00
5703;BME280;2876;51.738;10.050;2023-07-20T06:55:50;99032.78;;;16.46;100.00
5703;BME280;2876;51.738;10.050;2023-07-20T07:01:55;99034.69;;;16.79;100.00
5703;BME280;2876;51.738;10.050;2023-07-20T07:07:57;99050.09;;;16.62;100.00
5703;BME280;2876;51.738;10.050;2023-07-20T07:13:59;99064.22;;;16.47;100.00
5703;BME280;2876;51.738;10.050;2023-07-20T07:20:02;99070.94;;;16.16;100.00
5703;BME280;2876;51.738;10.050;2023-07-20T07:26:06;99072.06;;;16.32;100.00
5703;BME280;2876;51.738;10.050;2023-07-20T07:32:09;99076.66;;;16.31;99.56
5703;BME280;2876;51.738;10.050;2023-07-20T07:38:13;99084.66;;;16.55;100.00
5703;BME280;2876;51.738;10.050;2023-07-20T07:44:19;99092.56;;;16.73;100.00
5703;BME280;2876;51.738;10.050;2023-07-20T07:50:26;99093.31;;;17.02;97.31
5703;BME280;2876;51.738;10.050;2023-07-20T07:56:29;99101.06;;;16.65;98.61
5703;BME280;2876;51.738;10.050;2023-07-20T08:02:31;99093.19;;;16.63;99.83
5703;BME280;2876;51.738;10.050;2023-07-20T08:08:33;99091.84;;;16.78;99.74
5703;BME280;2876;51.738;10.050;2023-07-20T08:14:35;99107.59;;;17.14;98.69
5703;BME280;2876;51.738;10.050;2023-07-20T08:20:43;99113.03;;;17.53;97.30
5703;BME280;2876;51.738;10.050;2023-07-20T08:26:44;99118.03;;;18.00;92.20
5703;BME280;2876;51.738;10.050;2023-07-20T08:38:58;99135.22;;;18.33;89.27
5703;BME280;2876;51.738;10.050;2023-07-20T08:45:08;99134.94;;;18.34;89.80
5703;BME280;2876;51.738;10.050;2023-07-20T08:51:13;99132.41;;;18.49;89.96
5703;BME280;2876;51.738;10.050;2023-07-20T08:57:18;99135.81;;;18.13;88.88
5703;BME280;2876;51.738;10.050;2023-07-20T09:03:23;99138.28;;;17.92;89.57
5703;BME280;2876;51.738;10.050;2023-07-20T09:09:25;99148.50;;;17.68;90.33
5703;BME280;2876;51.738;10.050;2023-07-20T09:15:29;99144.94;;;18.07;91.01
5703;BME280;2876;51.738;10.050;2023-07-20T09:21:48;99147.63;;;18.72;89.10
5703;BME280;2876;51.738;10.050;2023-07-20T09:27:51;99148.50;;;19.52;84.32
5703;BME280;2876;51.738;10.050;2023-07-20T09:33:55;99155.88;;;21.23;77.75
5703;BME280;2876;51.738;10.050;2023-07-20T09:40:00;99162.72;;;21.46;74.31
5703;BME280;2876;51.738;10.050;2023-07-20T09:46:05;99159.53;;;22.19;67.43
5703;BME280;2876;51.738;10.050;2023-07-20T09:52:12;99164.25;;;22.58;66.47
5703;BME280;2876;51.738;10.050;2023-07-20T09:58:16;99176.38;;;22.37;66.82
5703;BME280;2876;51.738;10.050;2023-07-20T10:04:19;99178.81;;;21.17;69.88
5703;BME280;2876;51.738;10.050;2023-07-20T10:10:23;99171.97;;;21.30;72.42
5703;BME280;2876;51.738;10.050;2023-07-20T10:16:32;99171.34;;;22.59;65.28
5703;BME280;2876;51.738;10.050;2023-07-20T10:22:45;99171.72;;;23.55;61.63
5703;BME280;2876;51.738;10.050;2023-07-20T10:28:49;99169.09;;;23.74;56.72
5703;BME280;2876;51.738;10.050;2023-07-20T10:34:53;99165.16;;;23.27;55.95
5703;BME280;2876;51.738;10.050;2023-07-20T10:40:57;99161.47;;;22.14;59.50
5703;BME280;2876;51.738;10.050;2023-07-20T10:47:12;99158.63;;;21.49;58.84
5703;BME280;2876;51.738;10.050;2023-07-20T10:53:18;99149.63;;;21.33;61.13
5703;BME280;2876;51.738;10.050;2023-07-20T11:05:46;99155.25;;;22.58;56.65
5703;BME280;2876;51.738;10.050;2023-07-20T11:11:50;99162.66;;;22.96;57.50
5703;BME280;2876;51.738;10.050;2023-07-20T11:18:12;99146.59;;;22.85;53.50
5703;BME280;2876;51.738;10.050;2023-07-20T11:24:16;99150.31;;;23.33;53.24
5703;BME280;2876;51.738;10.050;2023-07-20T11:30:18;99150.56;;;23.66;51.06
5703;BME280;2876;51.738;10.050;2023-07-20T11:36:20;99141.66;;;24.84;45.80
5703;BME280;2876;51.738;10.050;2023-07-20T11:42:25;99152.59;;;25.02;48.36
5703;BME280;2876;51.738;10.050;2023-07-20T11:48:30;99146.28;;;25.53;44.70
5703;BME280;2876;51.738;10.050;2023-07-20T11:54:33;99147.84;;;23.90;45.17
5703;BME280;2876;51.738;10.050;2023-07-20T12:00:38;99139.97;;;25.20;46.16
5703;BME280;2876;51.738;10.050;2023-07-20T12:06:41;99139.38;;;26.25;41.21
5703;BME280;2876;51.738;10.050;2023-07-20T12:12:44;99135.53;;;25.71;43.10
5703;BME280;2876;51.738;10.050;2023-07-20T12:18:47;99133.41;;;24.84;45.23
5703;BME280;2876;51.738;10.050;2023-07-20T12:24:53;99130.72;;;25.63;41.41
5703;BME280;2876;51.738;10.050;2023-07-20T12:30:55;99135.22;;;26.14;42.37
5703;BME280;2876;51.738;10.050;2023-07-20T12:37:03;99151.91;;;27.17;38.25
5703;BME280;2876;51.738;10.050;2023-07-20T12:43:06;99126.53;;;27.29;39.93
5703;BME280;2876;51.738;10.050;2023-07-20T12:49:09;99132.78;;;27.74;37.85
5703;BME280;2876;51.738;10.050;2023-07-20T12:55:12;99132.56;;;28.11;36.77
5703;BME280;2876;51.738;10.050;2023-07-20T13:01:16;99129.75;;;29.20;36.38
5703;BME280;2876;51.738;10.050;2023-07-20T13:07:37;99110.69;;;27.35;35.88
5703;BME280;2876;51.738;10.050;2023-07-20T13:13:42;99109.22;;;27.37;37.53
5703;BME280;2876;51.738;10.050;2023-07-20T13:19:44;99117.13;;;28.75;34.74
5703;BME280;2876;51.738;10.050;2023-07-20T13:25:47;99116.59;;;28.91;33.96
5703;BME280;2876;51.738;10.050;2023-07-20T13:31:49;99112.25;;;28.98;33.84
5703;BME280;2876;51.738;10.050;2023-07-20T13:37:52;99103.75;;;27.46;33.58
5703;BME280;2876;51.738;10.050;2023-07-20T13:43:54;99097.50;;;27.23;34.43
5703;BME280;2876;51.738;10.050;2023-07-20T13:49:59;99101.81;;;27.77;35.67
5703;BME280;2876;51.738;10.050;2023-07-20T13:56:03;99101.81;;;29.21;33.15
5703;BME280;2876;51.738;10.050;2023-07-20T14:02:09;99101.22;;;30.72;31.27
5703;BME280;2876;51.738;10.050;2023-07-20T14:08:14;99101.59;;;30.41;30.81
5703;BME280;2876;51.738;10.050;2023-07-20T14:14:16;99092.34;;;30.37;31.12
5703;BME280;2876;51.738;10.050;2023-07-20T14:20:18;99086.28;;;30.86;31.13
5703;BME280;2876;51.738;10.050;2023-07-20T14:26:23;99085.56;;;32.16;30.52
5703;BME280;2876;51.738;10.050;2023-07-20T14:32:25;99088.53;;;32.11;28.96
5703;BME280;2876;51.738;10.050;2023-07-20T14:38:34;99077.47;;;31.87;29.13
5703;BME280;2876;51.738;10.050;2023-07-20T14:44:36;99078.47;;;31.00;29.77
5703;BME280;2876;51.738;10.050;2023-07-20T14:50:38;99067.09;;;30.09;31.14
5703;BME280;2876;51.738;10.050;2023-07-20T14:56:49;99064.03;;;28.44;32.19
5703;BME280;2876;51.738;10.050;2023-07-20T15:02:53;99052.25;;;29.16;33.02
5703;BME280;2876;51.738;10.050;2023-07-20T15:08:58;99060.28;;;27.74;34.57
5703;BME280;2876;51.738;10.050;2023-07-20T15:15:09;99061.31;;;26.12;36.92
5703;BME280;2876;51.738;10.050;2023-07-20T15:21:11;99058.28;;;26.72;37.22
5703;BME280;2876;51.738;10.050;2023-07-20T15:27:13;99048.94;;;26.82;36.18
5703;BME280;2876;51.738;10.050;2023-07-20T15:33:15;99052.06;;;27.51;34.00
5703;BME280;2876;51.738;10.050;2023-07-20T15:39:17;99043.31;;;29.02;32.68
5703;BME280;2876;51.738;10.050;2023-07-20T15:45:21;99033.94;;;28.77;31.71
5703;BME280;2876;51.738;10.050;2023-07-20T15:51:23;99045.13;;;28.11;33.43
5703;BME280;2876;51.738;10.050;2023-07-20T15:57:25;99038.72;;;29.23;32.36
5703;BME280;2876;51.738;10.050;2023-07-20T16:03:27;99036.84;;;29.45;31.00
5703;BME280;2876;51.738;10.050;2023-07-20T16:09:39;99049.38;;;28.43;34.93
5703;BME280;2876;51.738;10.050;2023-07-20T16:15:41;99035.75;;;27.24;37.42
5703;BME280;2876;51.738;10.050;2023-07-20T16:21:46;99031.88;;;26.71;39.57
5703;BME280;2876;51.738;10.050;2023-07-20T16:27:48;99021.63;;;27.65;37.05
5703;BME280;2876;51.738;10.050;2023-07-20T16:33:50;99028.53;;;27.76;35.83
5703;BME280;2876;51.738;10.050;2023-07-20T16:39:52;99021.22;;;26.78;39.72
5703;BME280;2876;51.738;10.050;2023-07-20T16:46:06;99013.44;;;26.13;38.95
5703;BME280;2876;51.738;10.050;2023-07-20T16:52:11;99021.53;;;25.68;40.17
5703;BME280;2876;51.738;10.050;2023-07-20T16:58:13;99018.16;;;25.99;41.67
5703;BME280;2876;51.738;10.050;2023-07-20T17:04:16;99023.63;;;29.59;35.67
5703;BME280;2876;51.738;10.050;2023-07-20T17:10:18;99022.75;;;28.13;37.43
5703;BME280;2876;51.738;10.050;2023-07-20T17:16:20;99020.78;;;28.13;37.42
5703;BME280;2876;51.738;10.050;2023-07-20T17:22:23;99016.72;;;28.19;37.00
5703;BME280;2876;51.738;10.050;2023-07-20T17:28:25;99015.91;;;30.45;33.84
5703;BME280;2876;51.738;10.050;2023-07-20T17:34:31;99003.00;;;32.41;30.99
5703;BME280;2876;51.738;10.050;2023-07-20T17:40:33;99008.28;;;32.18;31.22
5703;BME280;2876;51.738;10.050;2023-07-20T17:46:38;99008.78;;;32.36;30.16
5703;BME280;2876;51.738;10.050;2023-07-20T17:52:43;99021.22;;;32.39;29.22
5703;BME280;2876;51.738;10.050;2023-07-20T17:58:45;99006.44;;;32.10;29.57
5703;BME280;2876;51.738;10.050;2023-07-20T18:04:47;99004.97;;;31.76;30.12
5703;BME280;2876;51.738;10.050;2023-07-20T18:10:49;99004.19;;;31.63;30.16
5703;BME280;2876;51.738;10.050;2023-07-20T18:16:51;98991.44;;;31.25;31.23
5703;BME280;2876;51.738;10.050;2023-07-20T18:22:53;98996.47;;;30.87;32.39
5703;BME280;2876;51.738;10.050;2023-07-20T18:28:55;98990.56;;;30.55;32.84
5703;BME280;2876;51.738;10.050;2023-07-20T18:34:57;98993.69;;;30.12;34.45
5703;BME280;2876;51.738;10.050;2023-07-20T18:40:59;98995.59;;;29.40;35.99
5703;BME280;2876;51.738;10.050;2023-07-20T18:47:01;98988.78;;;27.77;37.17
5703;BME280;2876;51.738;10.050;2023-07-20T18:53:03;98989.81;;;25.35;41.83
5703;BME280;2876;51.738;10.050;2023-07-20T18:59:05;98992.34;;;23.58;46.61
5703;BME280;2876;51.738;10.050;2023-07-20T19:05:08;98992.66;;;22.45;51.38
5703;BME280;2876;51.738;10.050;2023-07-20T19:11:10;98984.19;;;21.58;54.59
5703;BME280;2876;51.738;10.050;2023-07-20T19:17:15;98989.84;;;20.35;57.59
5703;BME280;2876;51.738;10.050;2023-07-20T19:23:18;98991.81;;;19.57;61.87
5703;BME280;2876;51.738;10.050;2023-07-20T19:29:20;99003.53;;;19.05;64.85
5703;BME280;2876;51.738;10.050;2023-07-20T19:35:22;99011.00;;;18.18;68.64
5703;BME280;2876;51.738;10.050;2023-07-20T19:41:24;99019.38;;;17.67;70.67
5703;BME280;2876;51.738;10.050;2023-07-20T19:47:26;99018.94;;;17.54;70.21
5703;BME280;2876;51.738;10.050;2023-07-20T19:53:28;99024.97;;;17.39;71.12
5703;BME280;2876;51.738;10.050;2023-07-20T19:59:31;99030.16;;;17.40;72.41
5703;BME280;2876;51.738;10.050;2023-07-20T20:05:35;99024.47;;;17.03;72.41
5703;BME280;2876;51.738;10.050;2023-07-20T20:11:37;99016.53;;;17.13;70.53
5703;BME280;2876;51.738;10.050;2023-07-20T20:17:39;99027.09;;;17.15;72.02
5703;BME280;2876;51.738;10.050;2023-07-20T20:23:44;99027.72;;;16.83;73.21
5703;BME280;2876;51.738;10.050;2023-07-20T20:29:46;99026.88;;;16.66;74.17
5703;BME280;2876;51.738;10.050;2023-07-20T20:35:50;99021.72;;;16.64;74.68
5703;BME280;2876;51.738;10.050;2023-07-20T20:41:53;99020.00;;;16.58;75.09
5703;BME280;2876;51.738;10.050;2023-07-20T20:47:55;99009.72;;;16.60;75.48
5703;BME280;2876;51.738;10.050;2023-07-20T20:54:01;99013.34;;;16.66;74.69
5703;BME280;2876;51.738;10.050;2023-07-20T21:00:03;99009.41;;;16.57;76.03
5703;BME280;2876;51.738;10.050;2023-07-20T21:06:08;98997.75;;;16.56;76.55
5703;BME280;2876;51.738;10.050;2023-07-20T21:12:10;98981.94;;;16.31;77.77
5703;BME280;2876;51.738;10.050;2023-07-20T21:18:12;98994.13;;;16.34;77.23
5703;BME280;2876;51.738;10.050;2023-07-20T21:24:14;99000.06;;;16.31;77.17
5703;BME280;2876;51.738;10.050;2023-07-20T21:30:16;98999.56;;;16.17;78.36
5703;BME280;2876;51.738;10.050;2023-07-20T21:36:18;99004.75;;;16.07;78.86
5703;BME280;2876;51.738;10.050;2023-07-20T21:42:20;99018.63;;;16.10;79.47
5703;BME280;2876;51.738;10.050;2023-07-20T21:48:22;99015.41;;;15.68;80.93
5703;BME280;2876;51.738;10.050;2023-07-20T21:54:24;99011.63;;;15.69;81.54
5703;BME280;2876;51.738;10.050;2023-07-20T22:00:27;99006.94;;;15.53;82.17
5703;BME280;2876;51.738;10.050;2023-07-20T22:06:29;99006.69;;;15.14;84.45
5703;BME280;2876;51.738;10.050;2023-07-20T22:12:30;98991.75;;;15.23;84.01
5703;BME280;2876;51.738;10.050;2023-07-20T22:18:32;98985.44;;;15.17;84.11
5703;BME280;2876;51.738;10.050;2023-07-20T22:24:38;98978.16;;;15.06;84.50
5703;BME280;2876;51.738;10.050;2023-07-20T22:30:39;98991.41;;;15.19;84.48
5703;BME280;2876;51.738;10.050;2023-07-20T22:36:41;98992.84;;;15.10;84.91
5703;BME280;2876;51.738;10.050;2023-07-20T22:42:43;98997.53;;;15.15;84.98
5703;BME280;2876;51.738;10.050;2023-07-20T22:48:47;98982.75;;;15.06;85.65
5703;BME280;2876;51.738;10.050;2023-07-20T22:54:50;98984.28;;;14.66;86.53
5703;BME280;2876;51.738;10.050;2023-07-20T23:00:51;98961.88;;;14.66;86.75
5703;BME280;2876;51.738;10.050;2023-07-20T23:06:55;98955.56;;;14.72;86.50
5703;BME280;2876;51.738;10.050;2023-07-20T23:12:57;98963.97;;;14.87;87.38
5703;BME280;2876;51.738;10.050;2023-07-20T23:18:59;98968.09;;;14.78;88.05
5703;BME280;2876;51.738;10.050;2023-07-20T23:25:01;98962.22;;;14.69;88.26
5703;BME280;2876;51.738;10.050;2023-07-20T23:31:03;98940.28;;;14.54;88.84
5703;BME280;2876;51.738;10.050;2023-07-20T23:37:05;98937.38;;;14.67;89.02
5703;BME280;2876;51.738;10.050;2023-07-20T23:43:07;98934.03;;;14.89;88.98
5703;BME280;2876;51.738;10.050;2023-07-20T23:49:09;98929.53;;;15.06;88.88
5703;BME280;2876;51.738;10.050;2023-07-20T23:55:11;98931.16;;;15.19;89.05
